createdAt,value
2022-10-12T00:00:43.642Z,57.06
2022-10-12T00:03:13.239Z,56.77
2022-10-12T00:05:41.524Z,56.79
2022-10-12T00:08:09.710Z,56.97
2022-10-12T00:10:42.870Z,56.91
2022-10-12T00:13:11.521Z,56.99
2022-10-12T00:15:40.334Z,56.97
2022-10-12T00:18:08.945Z,57.00
2022-10-12T00:20:37.039Z,57.04
2022-10-12T00:23:05.180Z,57.06
2022-10-12T00:25:33.179Z,57.14
2022-10-12T00:28:02.630Z,57.06
2022-10-12T00:30:30.789Z,57.12
2022-10-12T00:32:58.819Z,57.10
2022-10-12T00:35:29.083Z,57.26
2022-10-12T00:37:57.582Z,57.34
2022-10-12T00:40:25.546Z,57.29
2022-10-12T00:42:53.568Z,57.22
2022-10-12T00:45:25.071Z,57.17
2022-10-12T00:47:56.978Z,57.17
2022-10-12T00:50:28.237Z,57.17
2022-10-12T00:53:01.371Z,57.33
2022-10-12T00:55:32.781Z,56.98
2022-10-12T00:58:02.276Z,56.92
2022-10-12T01:00:32.026Z,56.93
2022-10-12T01:03:00.543Z,56.97
2022-10-12T01:05:29.465Z,56.93
2022-10-12T01:07:59.737Z,56.90
2022-10-12T01:10:27.803Z,56.94
2022-10-12T01:12:56.041Z,56.95
2022-10-12T01:15:30.305Z,56.96
2022-10-12T01:18:06.898Z,56.91
2022-10-12T01:20:52.502Z,56.84
2022-10-12T01:23:44.107Z,56.86
2022-10-12T01:26:40.057Z,56.83
2022-10-12T01:29:22.026Z,56.96
2022-10-12T01:31:56.362Z,57.04
2022-10-12T01:34:32.037Z,57.16
2022-10-12T01:37:09.222Z,57.04
2022-10-12T01:39:44.836Z,57.14
2022-10-12T01:42:19.972Z,57.17
2022-10-12T01:44:48.018Z,57.24
2022-10-12T01:47:17.399Z,57.26
2022-10-12T01:49:45.421Z,57.24
2022-10-12T01:52:24.379Z,57.00
2022-10-12T01:55:11.707Z,56.99
2022-10-12T01:57:51.839Z,57.00
2022-10-12T02:00:20.608Z,57.16
2022-10-12T02:02:59.258Z,57.00
2022-10-12T02:05:36.183Z,57.03
2022-10-12T02:08:10.602Z,57.20
2022-10-12T02:10:42.335Z,57.21
2022-10-12T02:13:15.134Z,57.00
2022-10-12T02:15:44.865Z,56.97
2022-10-12T02:18:18.707Z,56.86
2022-10-12T02:20:48.521Z,56.93
2022-10-12T02:23:17.521Z,56.89
2022-10-12T02:25:47.345Z,56.89
2022-10-12T02:28:19.651Z,57.26
2022-10-12T02:30:53.873Z,57.30
2022-10-12T02:33:28.413Z,57.35
2022-10-12T02:36:01.861Z,58.38
2022-10-12T02:38:35.246Z,58.67
2022-10-12T02:41:06.845Z,58.67
2022-10-12T02:43:39.824Z,58.61
2022-10-12T02:46:10.521Z,58.61
2022-10-12T02:48:41.515Z,58.48
2022-10-12T02:51:12.152Z,58.45
2022-10-12T02:53:40.635Z,58.40
2022-10-12T02:56:13.165Z,58.36
2022-10-12T02:58:43.814Z,58.34
2022-10-12T03:01:12.252Z,58.39
2022-10-12T03:03:41.761Z,58.33
2022-10-12T03:06:10.101Z,58.44
2022-10-12T03:08:38.182Z,58.54
2022-10-12T03:11:08.656Z,58.52
2022-10-12T03:13:36.804Z,58.41
2022-10-12T03:16:05.545Z,58.28
2022-10-12T03:18:34.516Z,58.32
2022-10-12T03:21:04.219Z,58.35
2022-10-12T03:23:32.605Z,58.26
2022-10-12T03:26:00.646Z,58.18
2022-10-12T03:28:28.854Z,58.14
2022-10-12T03:30:57.267Z,58.13
2022-10-12T03:33:25.393Z,58.16
2022-10-12T03:35:53.479Z,58.13
2022-10-12T03:38:22.858Z,58.13
2022-10-12T03:40:50.879Z,58.22
2022-10-12T03:43:18.913Z,58.25
2022-10-12T03:45:47.331Z,58.25
2022-10-12T03:48:15.397Z,58.32
2022-10-12T03:50:43.428Z,58.29
2022-10-12T03:53:11.447Z,58.34
2022-10-12T03:55:40.827Z,58.46
2022-10-12T03:58:08.869Z,58.47
2022-10-12T04:00:37.225Z,58.32
2022-10-12T04:03:05.522Z,58.32
2022-10-12T04:05:33.943Z,58.35
2022-10-12T04:08:02.122Z,58.29
2022-10-12T04:10:30.139Z,58.23
2022-10-12T04:12:59.623Z,58.29
2022-10-12T04:15:27.606Z,58.30
2022-10-12T04:17:55.621Z,58.28
2022-10-12T04:20:23.668Z,58.19
2022-10-12T04:22:51.668Z,58.16
2022-10-12T04:25:19.727Z,58.15
2022-10-12T04:27:47.745Z,58.17
2022-10-12T04:30:17.238Z,58.16
2022-10-12T04:32:45.230Z,58.20
2022-10-12T04:35:13.258Z,58.25
2022-10-12T04:37:41.563Z,58.27
2022-10-12T04:40:10.568Z,58.22
2022-10-12T04:42:38.605Z,58.32
2022-10-12T04:45:07.566Z,58.38
2022-10-12T04:47:37.293Z,58.41
2022-10-12T04:50:06.301Z,58.46
2022-10-12T04:52:34.323Z,58.57
2022-10-12T04:55:02.367Z,58.64
2022-10-12T04:57:30.594Z,58.67
2022-10-12T04:59:58.658Z,58.58
2022-10-12T05:02:26.714Z,58.84
2022-10-12T05:04:56.170Z,58.54
2022-10-12T05:07:24.164Z,58.48
2022-10-12T05:09:52.309Z,58.37
2022-10-12T05:12:20.330Z,58.35
2022-10-12T05:14:48.321Z,58.28
2022-10-12T05:17:16.351Z,58.24
2022-10-12T05:19:44.400Z,58.25
2022-10-12T05:22:13.825Z,58.19
2022-10-12T05:24:41.823Z,58.18
2022-10-12T05:27:10.058Z,58.15
2022-10-12T05:29:38.047Z,58.20
2022-10-12T05:32:06.322Z,58.19
2022-10-12T05:34:34.354Z,58.19
2022-10-12T05:37:02.711Z,58.19
2022-10-12T05:39:32.144Z,58.15
2022-10-12T05:42:00.209Z,58.16
2022-10-12T05:44:28.245Z,58.22
2022-10-12T05:46:56.318Z,58.24
2022-10-12T05:49:24.346Z,58.19
2022-10-12T05:51:52.433Z,58.16
2022-10-12T05:54:20.549Z,58.23
2022-10-12T05:56:49.936Z,58.16
2022-10-12T05:59:18.005Z,58.15
2022-10-12T06:01:46.094Z,58.11
2022-10-12T06:04:14.122Z,58.19
2022-10-12T06:06:42.186Z,58.21
2022-10-12T06:09:10.266Z,58.25
2022-10-12T06:11:38.336Z,58.50
2022-10-12T06:14:07.777Z,58.77
2022-10-12T06:16:35.782Z,58.61
2022-10-12T06:19:03.798Z,58.45
2022-10-12T06:21:34.289Z,58.82
2022-10-12T06:24:02.809Z,58.71
2022-10-12T06:26:31.091Z,58.91
2022-10-12T06:29:00.685Z,58.99
2022-10-12T06:31:30.601Z,59.02
2022-10-12T06:33:58.653Z,58.98
2022-10-12T06:36:26.841Z,59.00
2022-10-12T06:38:55.259Z,59.06
2022-10-12T06:41:23.473Z,59.05
2022-10-12T06:43:51.490Z,59.07
2022-10-12T06:46:19.541Z,59.06
2022-10-12T06:48:48.962Z,59.03
2022-10-12T06:51:16.978Z,59.00
2022-10-12T06:53:45.046Z,59.03
2022-10-12T06:56:13.754Z,59.15
2022-10-12T06:58:42.117Z,59.15
2022-10-12T07:01:11.123Z,59.16
2022-10-12T07:03:39.419Z,59.29
2022-10-12T07:06:11.449Z,59.20
2022-10-12T07:08:41.001Z,59.26
2022-10-12T07:11:10.724Z,59.25
2022-10-12T07:13:39.310Z,59.38
2022-10-12T07:16:07.823Z,60.33
2022-10-12T07:18:35.877Z,60.02
2022-10-12T07:21:04.286Z,59.66
2022-10-12T07:23:34.833Z,58.31
2022-10-12T07:26:03.070Z,57.92
2022-10-12T07:28:31.163Z,56.51
2022-10-12T07:31:03.158Z,55.46
2022-10-12T07:33:35.147Z,55.15
2022-10-12T07:36:14.020Z,55.42
2022-10-12T07:38:45.814Z,56.26
2022-10-12T07:41:15.259Z,57.26
2022-10-12T07:43:43.482Z,57.88
2022-10-12T07:46:12.093Z,57.77
2022-10-12T07:48:44.551Z,57.94
2022-10-12T07:51:17.168Z,57.76
2022-10-12T07:53:46.733Z,57.58
2022-10-12T07:56:18.336Z,55.24
2022-10-12T07:58:50.123Z,54.20
2022-10-12T08:01:19.747Z,53.41
2022-10-12T08:03:48.229Z,53.15
2022-10-12T08:06:17.859Z,52.38
2022-10-12T08:08:47.381Z,53.56
2022-10-12T08:11:16.120Z,53.81
2022-10-12T08:13:44.642Z,54.62
2022-10-12T08:16:14.954Z,54.44
2022-10-12T08:18:43.388Z,52.88
2022-10-12T08:21:14.120Z,52.55
2022-10-12T08:23:44.497Z,51.69
2022-10-12T08:26:14.910Z,50.57
2022-10-12T08:28:43.641Z,50.72
2022-10-12T08:31:14.218Z,51.78
2022-10-12T08:33:42.318Z,50.59
2022-10-12T08:36:11.966Z,49.43
2022-10-12T08:38:40.112Z,48.66
2022-10-12T08:41:27.562Z,49.65
2022-10-12T08:44:16.018Z,47.92
2022-10-12T08:46:44.054Z,47.20
2022-10-12T08:49:17.414Z,47.53
2022-10-12T08:51:50.203Z,46.05
2022-10-12T08:54:20.220Z,44.09
2022-10-12T08:56:49.920Z,44.96
2022-10-12T08:59:19.887Z,45.64
2022-10-12T09:02:00.374Z,46.08
2022-10-12T09:04:41.626Z,45.45
2022-10-12T09:07:14.095Z,45.97
2022-10-12T09:09:54.650Z,46.29
2022-10-12T09:12:36.571Z,44.77
2022-10-12T09:15:16.455Z,45.28
2022-10-12T09:17:48.757Z,45.15
2022-10-12T09:20:22.673Z,43.88
2022-10-12T09:22:52.775Z,43.74
2022-10-12T09:25:24.907Z,44.57
2022-10-12T09:27:55.301Z,42.10
2022-10-12T09:30:23.519Z,38.62
2022-10-12T09:33:10.322Z,38.56
2022-10-12T09:35:38.634Z,35.79
2022-10-12T09:38:07.818Z,34.24
2022-10-12T09:40:35.875Z,36.08
2022-10-12T09:43:05.407Z,34.70
2022-10-12T09:45:36.198Z,34.86
2022-10-12T09:48:15.922Z,33.76
2022-10-12T09:50:48.817Z,31.32
2022-10-12T09:53:32.890Z,31.77
2022-10-12T09:56:06.738Z,30.43
2022-10-12T09:58:42.907Z,31.09
2022-10-12T10:01:19.578Z,29.87
2022-10-12T10:03:49.907Z,28.48
2022-10-12T10:06:24.645Z,27.86
2022-10-12T10:08:52.786Z,28.21
2022-10-12T10:11:24.557Z,28.80
2022-10-12T10:13:55.934Z,27.91
2022-10-12T10:16:27.122Z,27.56
2022-10-12T10:19:00.478Z,28.18
2022-10-12T10:21:32.406Z,27.96
2022-10-12T10:24:02.469Z,27.04
2022-10-12T10:26:51.423Z,27.60
2022-10-12T10:29:32.101Z,27.10
2022-10-12T10:32:23.967Z,26.13
2022-10-12T10:35:02.984Z,25.73
2022-10-12T10:37:32.213Z,26.16
2022-10-12T10:40:00.902Z,27.65
2022-10-12T10:42:32.636Z,27.12
2022-10-12T10:45:07.067Z,26.88
2022-10-12T10:47:43.283Z,28.00
2022-10-12T10:50:25.759Z,27.95
2022-10-12T10:52:57.717Z,28.19
2022-10-12T10:55:36.389Z,28.84
2022-10-12T10:58:07.108Z,28.36
2022-10-12T11:00:44.062Z,28.74
2022-10-12T11:03:15.970Z,26.37
2022-10-12T11:05:47.789Z,26.46
2022-10-12T11:08:20.710Z,25.50
2022-10-12T11:10:54.517Z,23.77
2022-10-12T11:13:26.621Z,24.74
2022-10-12T11:15:59.437Z,24.30
2022-10-12T11:18:35.772Z,23.86
2022-10-12T11:21:08.442Z,23.56
2022-10-12T11:23:45.137Z,23.05
2022-10-12T11:26:21.683Z,24.16
2022-10-12T11:28:50.443Z,23.73
2022-10-12T11:31:26.675Z,23.71
2022-10-12T11:33:56.222Z,22.37
2022-10-12T11:36:27.439Z,21.18
2022-10-12T11:39:03.203Z,22.29
2022-10-12T11:42:03.067Z,22.66
2022-10-12T11:44:41.036Z,22.63
2022-10-12T11:47:17.267Z,21.31
2022-10-12T11:49:53.543Z,21.84
2022-10-12T11:52:27.763Z,21.86
2022-10-12T11:55:01.995Z,22.18
2022-10-12T11:57:35.054Z,22.89
2022-10-12T12:00:06.591Z,23.44
2022-10-12T12:02:44.126Z,22.87
2022-10-12T12:05:16.509Z,21.10
2022-10-12T12:07:50.254Z,21.15
2022-10-12T12:10:51.873Z,20.92
2022-10-12T12:13:23.787Z,21.34
2022-10-12T12:16:32.782Z,20.07
2022-10-12T12:19:39.297Z,20.66
2022-10-12T12:22:24.945Z,21.37
2022-10-12T12:25:05.986Z,21.80
2022-10-12T12:27:38.138Z,21.71
2022-10-12T12:30:24.878Z,21.81
2022-10-12T12:32:55.371Z,22.27
2022-10-12T12:35:28.844Z,22.88
2022-10-12T12:38:19.802Z,23.49
2022-10-12T12:41:06.507Z,24.54
2022-10-12T12:44:02.675Z,25.39
2022-10-12T12:47:32.514Z,25.07
2022-10-12T12:49:57.321Z,27.42
2022-10-12T12:52:29.810Z,26.78
2022-10-12T12:55:39.373Z,26.29
2022-10-12T12:58:44.603Z,26.55
2022-10-12T13:01:31.898Z,26.46
2022-10-12T13:04:24.145Z,25.51
2022-10-12T13:07:21.198Z,26.66
2022-10-12T13:10:12.877Z,26.88
2022-10-12T13:13:01.062Z,26.70
2022-10-12T13:15:45.891Z,27.03
2022-10-12T13:18:49.420Z,26.25
2022-10-12T13:21:21.362Z,26.60
2022-10-12T13:23:52.347Z,26.81
2022-10-12T13:26:26.327Z,27.41
2022-10-12T13:28:55.995Z,27.60
2022-10-12T13:31:28.999Z,26.95
2022-10-12T13:34:04.768Z,28.32
2022-10-12T13:36:36.222Z,26.21
2022-10-12T13:39:15.230Z,25.94
2022-10-12T13:41:46.002Z,25.65
2022-10-12T13:44:23.103Z,24.94
2022-10-12T13:46:54.927Z,24.01
2022-10-12T13:49:25.368Z,24.76
2022-10-12T13:51:55.058Z,23.08
2022-10-12T13:54:25.970Z,23.37
2022-10-12T13:56:58.632Z,23.00
2022-10-12T13:59:29.634Z,22.90
2022-10-12T14:02:00.886Z,23.12
2022-10-12T14:04:30.694Z,23.05
2022-10-12T14:07:02.683Z,22.75
2022-10-12T14:09:41.582Z,22.24
2022-10-12T14:12:12.647Z,23.63
2022-10-12T14:14:44.327Z,23.86
2022-10-12T14:17:15.928Z,23.99
2022-10-12T14:19:46.809Z,25.12
2022-10-12T14:22:21.646Z,25.54
2022-10-12T14:24:50.733Z,25.19
2022-10-12T14:27:26.098Z,26.29
2022-10-12T14:29:58.255Z,27.78
2022-10-12T14:32:42.454Z,27.01
2022-10-12T14:35:14.794Z,27.35
2022-10-12T14:37:43.089Z,28.35
2022-10-12T14:40:35.246Z,28.38
2022-10-12T14:43:09.502Z,29.28
2022-10-12T14:45:37.625Z,29.60
2022-10-12T14:48:10.931Z,29.25
2022-10-12T14:50:38.974Z,29.84
2022-10-12T14:53:12.327Z,30.72
2022-10-12T14:55:42.523Z,29.93
2022-10-12T14:58:16.328Z,30.35
2022-10-12T15:00:45.136Z,30.40
2022-10-12T15:03:13.215Z,30.51
2022-10-12T15:05:41.234Z,31.39
2022-10-12T15:08:09.405Z,31.16
2022-10-12T15:10:38.709Z,31.30
2022-10-12T15:13:06.743Z,31.71
2022-10-12T15:15:40.741Z,32.21
2022-10-12T15:18:09.131Z,33.10
2022-10-12T15:20:38.357Z,33.61
2022-10-12T15:23:06.735Z,33.55
2022-10-12T15:25:42.794Z,34.14
2022-10-12T15:28:10.838Z,34.08
2022-10-12T15:30:58.070Z,34.49
2022-10-12T15:33:28.338Z,34.39
2022-10-12T15:35:56.536Z,34.70
2022-10-12T15:38:24.505Z,35.18
2022-10-12T15:40:53.463Z,35.18
2022-10-12T15:43:21.577Z,35.29
2022-10-12T15:45:51.546Z,35.92
2022-10-12T15:48:19.593Z,36.37
2022-10-12T15:50:49.146Z,36.85
2022-10-12T15:53:18.014Z,37.73
2022-10-12T15:55:46.034Z,37.42
2022-10-12T15:58:14.073Z,37.57
2022-10-12T16:00:42.158Z,37.86
2022-10-12T16:03:16.427Z,37.95
2022-10-12T16:05:46.234Z,38.38
2022-10-12T16:08:15.448Z,39.07
2022-10-12T16:10:43.544Z,39.18
2022-10-12T16:13:13.842Z,39.15
2022-10-12T16:15:42.842Z,39.58
2022-10-12T16:18:15.472Z,39.85
2022-10-12T16:20:46.687Z,39.90
2022-10-12T16:23:21.432Z,39.94
2022-10-12T16:25:49.412Z,40.16
2022-10-12T16:28:18.754Z,40.75
2022-10-12T16:30:46.814Z,40.63
2022-10-12T16:33:16.413Z,40.84
2022-10-12T16:35:44.995Z,41.37
2022-10-12T16:38:14.713Z,41.63
2022-10-12T16:40:43.329Z,41.97
2022-10-12T16:43:11.993Z,41.70
2022-10-12T16:45:40.047Z,42.20
2022-10-12T16:48:08.192Z,42.52
2022-10-12T16:50:40.859Z,43.06
2022-10-12T16:53:09.616Z,43.34
2022-10-12T16:55:40.765Z,43.35
2022-10-12T16:58:08.766Z,43.65
2022-10-12T17:00:37.860Z,43.87
2022-10-12T17:03:06.080Z,43.95
2022-10-12T17:05:34.084Z,44.16
2022-10-12T17:08:03.459Z,44.46
2022-10-12T17:10:31.566Z,44.77
2022-10-12T17:12:59.585Z,44.91
2022-10-12T17:15:27.594Z,45.13
2022-10-12T17:17:56.334Z,45.35
2022-10-12T17:20:24.353Z,45.30
2022-10-12T17:22:52.374Z,45.46
2022-10-12T17:25:21.745Z,45.69
2022-10-12T17:27:49.744Z,45.77
2022-10-12T17:30:18.022Z,46.04
2022-10-12T17:32:46.007Z,46.09
2022-10-12T17:35:14.031Z,46.17
2022-10-12T17:37:42.042Z,46.49
2022-10-12T17:40:11.748Z,46.63
2022-10-12T17:42:41.157Z,46.77
2022-10-12T17:45:09.841Z,47.05
2022-10-12T17:47:39.250Z,47.19
2022-10-12T17:50:08.101Z,47.38
2022-10-12T17:52:41.700Z,47.39
2022-10-12T17:55:29.669Z,47.93
2022-10-12T17:58:01.031Z,48.08
2022-10-12T18:00:29.610Z,48.12
2022-10-12T18:02:58.310Z,48.29
2022-10-12T18:05:26.561Z,48.55
2022-10-12T18:07:54.577Z,48.53
2022-10-12T18:10:24.807Z,48.71
2022-10-12T18:12:55.758Z,48.81
2022-10-12T18:15:25.129Z,48.92
2022-10-12T18:17:54.592Z,49.04
2022-10-12T18:20:22.662Z,49.22
2022-10-12T18:22:50.646Z,49.20
2022-10-12T18:25:18.885Z,49.27
2022-10-12T18:27:50.178Z,49.28
2022-10-12T18:30:18.382Z,49.34
2022-10-12T18:32:47.769Z,49.34
2022-10-12T18:35:15.939Z,49.28
2022-10-12T18:37:44.789Z,49.37
2022-10-12T18:40:13.393Z,49.23
2022-10-12T18:42:41.401Z,49.08
2022-10-12T18:45:10.129Z,49.12
2022-10-12T18:47:38.531Z,49.00
2022-10-12T18:50:09.266Z,49.23
2022-10-12T18:52:37.305Z,49.21
2022-10-12T18:55:05.925Z,49.12
2022-10-12T18:57:37.721Z,49.03
2022-10-12T19:00:10.243Z,49.15
2022-10-12T19:02:38.265Z,49.15
2022-10-12T19:05:08.370Z,49.30
2022-10-12T19:07:36.797Z,49.31
2022-10-12T19:10:07.055Z,49.42
2022-10-12T19:12:35.352Z,49.73
2022-10-12T19:15:03.452Z,49.84
2022-10-12T19:17:32.131Z,49.94
2022-10-12T19:20:00.157Z,50.15
2022-10-12T19:22:29.629Z,50.17
2022-10-12T19:24:57.578Z,50.25
2022-10-12T19:27:25.589Z,50.47
2022-10-12T19:29:53.568Z,50.47
2022-10-12T19:32:21.634Z,50.49
2022-10-12T19:34:51.901Z,50.65
2022-10-12T19:37:19.924Z,50.86
2022-10-12T19:39:49.342Z,50.89
2022-10-12T19:42:17.661Z,51.00
2022-10-12T19:44:45.818Z,51.14
2022-10-12T19:47:13.878Z,51.24
2022-10-12T19:49:45.160Z,51.23
2022-10-12T19:52:13.518Z,51.32
2022-10-12T19:54:41.784Z,51.40
2022-10-12T19:57:11.208Z,51.37
2022-10-12T19:59:39.190Z,51.40
2022-10-12T20:02:09.255Z,51.40
2022-10-12T20:04:37.286Z,51.42
2022-10-12T20:07:05.293Z,51.40
2022-10-12T20:09:33.334Z,51.54
2022-10-12T20:12:01.332Z,51.50
2022-10-12T20:14:30.837Z,51.53
2022-10-12T20:16:58.827Z,51.47
2022-10-12T20:19:26.915Z,51.24
2022-10-12T20:21:54.897Z,50.86
2022-10-12T20:24:22.970Z,50.77
2022-10-12T20:26:51.059Z,50.95
2022-10-12T20:29:19.032Z,50.95
2022-10-12T20:31:48.402Z,51.06
2022-10-12T20:34:16.432Z,50.85
2022-10-12T20:36:44.429Z,51.01
2022-10-12T20:39:12.410Z,51.17
2022-10-12T20:41:41.064Z,51.24
2022-10-12T20:44:10.922Z,51.12
2022-10-12T20:46:38.969Z,50.90
2022-10-12T20:49:08.333Z,50.67
2022-10-12T20:51:39.994Z,50.69
2022-10-12T20:54:09.147Z,50.49
2022-10-12T20:56:41.165Z,50.50
2022-10-12T21:20:14.378Z,50.29
2022-10-12T21:22:45.837Z,50.32
2022-10-12T21:25:13.861Z,50.57
2022-10-12T21:27:41.958Z,50.59
2022-10-12T21:30:10.604Z,50.69
2022-10-12T21:32:38.623Z,50.90
2022-10-12T21:35:07.254Z,51.00
2022-10-12T21:37:36.606Z,51.19
2022-10-12T21:40:05.183Z,51.42
2022-10-12T21:42:33.164Z,51.65
2022-10-12T21:45:01.214Z,51.78
2022-10-12T21:47:29.213Z,51.83
2022-10-12T21:49:57.221Z,52.01
2022-10-12T21:52:25.262Z,52.24
2022-10-12T21:54:54.651Z,52.46
2022-10-12T21:57:22.687Z,52.65
2022-10-12T21:59:50.768Z,52.97
2022-10-12T22:02:19.013Z,53.20
2022-10-12T22:04:47.317Z,53.30
2022-10-12T22:07:15.354Z,53.38
2022-10-12T22:09:45.218Z,53.34
2022-10-12T22:12:15.068Z,53.29
2022-10-12T22:14:43.285Z,53.68
2022-10-12T22:17:12.356Z,53.65
2022-10-12T22:19:45.116Z,53.76
2022-10-12T22:22:13.110Z,53.97
2022-10-12T22:24:41.119Z,54.05
2022-10-12T22:27:09.177Z,53.94
2022-10-12T22:29:38.566Z,54.40
2022-10-12T22:32:06.820Z,54.36
2022-10-12T22:34:34.810Z,54.38
2022-10-12T22:37:02.842Z,54.31
2022-10-12T22:39:30.874Z,54.55
2022-10-12T22:41:58.860Z,54.78
2022-10-12T22:44:26.971Z,54.92
2022-10-12T22:46:56.690Z,55.10
2022-10-12T22:49:24.707Z,55.29
2022-10-12T22:51:52.702Z,55.32
2022-10-12T22:54:20.762Z,55.21
2022-10-12T22:56:51.234Z,55.04
2022-10-12T22:59:19.263Z,54.92
2022-10-12T23:01:47.281Z,54.86
2022-10-12T23:04:16.771Z,54.85
2022-10-12T23:06:44.781Z,54.93
2022-10-12T23:09:12.886Z,54.92
2022-10-12T23:11:40.896Z,54.89
2022-10-12T23:14:11.982Z,54.93
2022-10-12T23:16:40.022Z,54.98
2022-10-12T23:19:08.085Z,54.84
2022-10-12T23:21:37.471Z,54.79
2022-10-12T23:24:06.348Z,54.75
2022-10-12T23:26:34.669Z,54.72
2022-10-12T23:29:03.299Z,54.63
2022-10-12T23:31:32.082Z,54.59
2022-10-12T23:34:02.908Z,54.42
2022-10-12T23:36:31.670Z,54.48
2022-10-12T23:39:03.014Z,54.43
2022-10-12T23:41:31.069Z,54.55
2022-10-12T23:43:59.124Z,54.41
2022-10-12T23:46:27.276Z,54.41
2022-10-12T23:48:57.670Z,54.39
2022-10-12T23:51:25.926Z,54.49
2022-10-12T23:53:54.034Z,54.49
2022-10-12T23:56:23.398Z,54.50
2022-10-12T23:58:51.421Z,54.47
